Time;durP1;ratioP1;P1;durP2;ratioP2;P2;SDS_P1;SDS_P2;PMS_P1;PMS_P2;Temp;Humidity;BMP_temperature;BMP_pressure;BME280_temperature;BME280_humidity;BME280_pressure;Samples;Min_cycle;Max_cycle;Signal;HPM_P1;HPM_P2
2023/05/05 00:00:14;;;;;;;24.42;12.13;;;;;;;15.86;79.86;101262.47;4854360;29;20438;-80
2023/05/05 00:02:40;;;;;;;23.67;12.07;;;;;;;15.76;81.26;101256.13;4853909;29;20029;-79
2023/05/05 00:05:06;;;;;;;23.63;12.45;;;;;;;15.68;81.10;101265.78;4856951;29;20111;-79
2023/05/05 00:07:31;;;;;;;23.27;12.00;;;;;;;15.62;81.02;101260.88;4859262;29;20029;-79
2023/05/05 00:09:57;;;;;;;23.42;12.38;;;;;;;15.59;81.39;101263.03;4858538;29;20427;-79
2023/05/05 00:12:22;;;;;;;25.30;13.50;;;;;;;15.54;81.88;101266.13;4857797;29;20033;-80
2023/05/05 00:14:47;;;;;;;23.25;12.43;;;;;;;15.55;82.45;101267.88;4857271;29;20030;-80
2023/05/05 00:17:13;;;;;;;23.10;12.77;;;;;;;15.52;82.87;101271.69;4854602;29;20081;-79
2023/05/05 00:19:39;;;;;;;24.85;13.77;;;;;;;15.49;83.40;101274.66;4858134;29;20105;-80
2023/05/05 00:22:05;;;;;;;28.40;13.55;;;;;;;15.47;83.95;101276.63;4857585;29;20031;-80
2023/05/05 00:24:30;;;;;;;24.13;12.07;;;;;;;15.47;84.28;101264.97;4855895;29;21197;-79
2023/05/05 00:26:56;;;;;;;23.77;13.43;;;;;;;15.50;85.18;101272.81;4858720;29;20064;-79
2023/05/05 00:29:21;;;;;;;25.58;13.38;;;;;;;15.50;84.40;101267.38;4848504;29;20050;-80
2023/05/05 00:31:49;;;;;;;24.50;13.45;;;;;;;15.48;84.76;101275.66;4860536;29;20048;-80
2023/05/05 00:34:15;;;;;;;26.25;14.43;;;;;;;15.48;85.02;101272.09;4853105;29;20048;-80
2023/05/05 00:36:40;;;;;;;26.65;14.65;;;;;;;15.44;86.16;101267.94;4859324;29;20111;-79
2023/05/05 00:39:05;;;;;;;25.77;13.90;;;;;;;15.42;85.61;101268.06;4854583;29;20420;-79
2023/05/05 00:41:31;;;;;;;25.63;14.75;;;;;;;15.40;86.06;101269.19;4855662;29;20034;-80
2023/05/05 00:43:56;;;;;;;25.10;13.80;;;;;;;15.33;87.00;101271.56;4856993;29;20086;-78
2023/05/05 00:46:26;;;;;;;25.50;14.43;;;;;;;15.27;87.75;101281.09;4858378;29;20041;-80
2023/05/05 00:48:52;;;;;;;24.75;13.27;;;;;;;15.18;89.31;101280.03;4857974;29;20060;-79
2023/05/05 00:51:19;;;;;;;29.10;16.38;;;;;;;15.22;87.96;101283.34;4856403;29;20079;-79
2023/05/05 00:53:45;;;;;;;25.33;14.75;;;;;;;15.17;89.78;101285.59;4857049;29;20057;-80
2023/05/05 00:56:11;;;;;;;27.77;14.50;;;;;;;15.12;89.81;101283.25;4856587;29;20067;-79
2023/05/05 00:58:39;;;;;;;28.55;15.80;;;;;;;15.10;89.08;101281.69;4857231;29;20534;-80
2023/05/05 01:01:04;;;;;;;26.30;14.90;;;;;;;15.06;90.57;101283.78;4854935;29;20029;-74
2023/05/05 01:03:30;;;;;;;27.20;15.05;;;;;;;14.99;90.67;101283.47;4853408;29;20094;-74
2023/05/05 01:06:24;;;;;;;27.35;14.95;;;;;;;14.97;nan;101276.47;4853600;29;20174;-74
2023/05/05 01:09:03;;;;;;;27.75;14.90;;;;;;;14.84;90.93;101290.16;4847825;29;20033;-74
2023/05/05 01:11:42;;;;;;;26.98;15.02;;;;;;;14.76;91.17;101280.00;4857992;29;20466;-74
2023/05/05 01:14:27;;;;;;;27.10;15.27;;;;;;;14.74;90.74;101279.25;4851778;29;20397;-74
2023/05/05 01:16:57;;;;;;;26.15;15.50;;;;;;;14.67;92.26;101291.56;4856239;29;20048;-74
2023/05/05 01:19:49;;;;;;;26.48;15.88;;;;;;;14.64;92.01;101284.59;4859100;29;20034;-74
2023/05/05 01:22:18;;;;;;;25.83;16.05;;;;;;;14.62;94.17;101286.56;4850672;29;20346;-74
2023/05/05 01:25:06;;;;;;;34.53;17.70;;;;;;;14.65;92.96;101278.19;4857671;29;20030;-75
2023/05/05 01:28:22;;;;;;;26.65;14.68;;;;;;;14.68;92.00;101266.25;4858146;29;20037;-75
2023/05/05 01:31:15;;;;;;;28.92;16.45;;;;;;;14.65;93.60;101274.63;4843886;29;20049;-75
2023/05/05 01:33:46;;;;;;;27.40;16.02;;;;;;;14.56;94.96;101276.22;4860191;29;20514;-75
2023/05/05 01:36:21;;;;;;;28.65;17.38;;;;;;;14.58;94.74;101295.03;4859188;29;20129;-74
2023/05/05 01:38:52;;;;;;;28.17;16.95;;;;;;;14.50;95.17;101287.56;4859664;29;20034;-75
2023/05/05 01:41:24;;;;;;;28.17;17.20;;;;;;;14.44;95.05;101279.97;4860093;29;20113;-75
2023/05/05 01:43:51;;;;;;;29.17;17.20;;;;;;;14.32;95.98;101271.88;4852608;29;20022;-74
2023/05/05 01:46:20;;;;;;;30.60;17.25;;;;;;;14.30;96.58;101270.28;4873822;29;20442;-74
2023/05/05 01:48:47;;;;;;;30.15;17.33;;;;;;;14.26;97.06;101276.91;4860844;29;20029;-74
2023/05/05 01:51:15;;;;;;;27.60;17.83;;;;;;;14.20;97.06;101277.41;4859923;29;20041;-74
2023/05/05 01:53:41;;;;;;;28.15;17.33;;;;;;;14.14;97.36;101276.06;4861082;29;20097;-75
2023/05/05 01:56:07;;;;;;;27.65;16.17;;;;;;;14.09;97.35;101287.28;4853344;29;20045;-74
2023/05/05 01:58:34;;;;;;;27.80;17.40;;;;;;;13.98;97.76;101280.03;4860230;29;20034;-74
2023/05/05 02:01:00;;;;;;;28.95;18.25;;;;;;;13.92;97.47;101283.22;4859071;29;20037;-74
2023/05/05 02:03:27;;;;;;;28.25;18.00;;;;;;;13.79;97.91;101287.88;4859646;29;20089;-74
2023/05/05 02:05:53;;;;;;;28.50;16.38;;;;;;;13.73;97.98;101288.38;4860647;29;20524;-74
2023/05/05 02:08:20;;;;;;;27.20;16.83;;;;;;;13.62;98.50;101283.84;4860859;29;20041;-74
2023/05/05 02:10:47;;;;;;;28.23;17.65;;;;;;;13.55;98.66;101286.16;4856095;29;20036;-74
2023/05/05 02:13:14;;;;;;;28.02;16.50;;;;;;;13.49;99.24;101286.66;4859557;29;20090;-74
2023/05/05 02:15:40;;;;;;;28.20;17.27;;;;;;;13.42;98.61;101290.81;4860672;29;20037;-75
2023/05/05 02:18:06;;;;;;;27.38;16.17;;;;;;;13.36;98.98;101289.44;4859615;29;20640;-74
2023/05/05 02:20:32;;;;;;;29.75;18.65;;;;;;;13.28;99.25;101300.81;4859604;29;20466;-74
2023/05/05 02:22:58;;;;;;;28.52;17.00;;;;;;;13.24;99.30;101304.72;4859464;29;20146;-74
2023/05/05 02:25:28;;;;;;;28.25;16.52;;;;;;;13.19;99.30;101306.94;4860783;29;20037;-74
2023/05/05 02:27:57;;;;;;;27.15;16.55;;;;;;;13.11;100.00;101303.97;4858701;29;20030;-74
2023/05/05 02:30:24;;;;;;;28.80;17.25;;;;;;;13.07;99.42;101313.25;4860804;29;20052;-74
2023/05/05 02:32:54;;;;;;;28.35;17.77;;;;;;;12.99;100.00;101312.97;4858017;29;20049;-74
2023/05/05 02:35:28;;;;;;;27.50;17.40;;;;;;;12.91;100.00;101313.56;4860039;29;20029;-74
2023/05/05 02:38:01;;;;;;;28.00;17.27;;;;;;;12.88;100.00;101314.66;4858886;29;20383;-74
2023/05/05 02:40:29;;;;;;;28.25;17.70;;;;;;;12.80;100.00;101327.88;4853619;29;20435;-75
2023/05/05 02:42:57;;;;;;;29.75;17.88;;;;;;;12.76;100.00;101329.94;4858613;29;20442;-74
2023/05/05 02:45:25;;;;;;;29.48;19.23;;;;;;;12.74;100.00;101334.59;4859346;29;20506;-74
2023/05/05 02:47:51;;;;;;;28.55;18.05;;;;;;;12.71;100.00;101333.97;4858190;29;20025;-74
2023/05/05 02:50:16;;;;;;;28.40;17.65;;;;;;;12.72;100.00;101333.84;4858940;29;20084;-74
2023/05/05 02:52:42;;;;;;;28.13;18.27;;;;;;;12.79;100.00;101336.94;4858929;29;20127;-74
2023/05/05 02:55:08;;;;;;;30.73;18.02;;;;;;;12.78;100.00;101329.81;4858953;29;20041;-75
2023/05/05 02:57:43;;;;;;;26.38;16.73;;;;;;;12.76;100.00;101332.63;4860542;29;20040;-74
2023/05/05 03:00:27;;;;;;;28.08;17.27;;;;;;;12.73;99.66;101327.47;4856782;29;20076;-74
2023/05/05 03:03:15;;;;;;;29.65;16.88;;;;;;;12.68;99.87;101323.38;4857094;29;20057;-73
2023/05/05 03:05:58;;;;;;;29.33;17.10;;;;;;;12.66;99.83;101326.19;4858970;29;20485;-74
2023/05/05 03:08:41;;;;;;;28.42;18.00;;;;;;;12.63;99.27;101314.81;4853012;29;20074;-74
2023/05/05 03:11:21;;;;;;;30.50;17.08;;;;;;;12.53;99.50;101326.28;4859145;29;20124;-76
2023/05/05 03:13:54;;;;;;;27.65;17.13;;;;;;;12.47;100.00;101332.09;4857064;29;20116;-75
2023/05/05 03:16:23;;;;;;;30.17;16.48;;;;;;;12.46;100.00;101329.53;4856099;29;20073;-74
2023/05/05 03:18:49;;;;;;;27.17;16.02;;;;;;;12.42;99.77;101323.50;4859987;29;20041;-74
2023/05/05 03:21:15;;;;;;;27.45;17.05;;;;;;;12.40;100.00;101331.72;4857556;29;20124;-74
2023/05/05 03:23:40;;;;;;;25.90;15.40;;;;;;;12.38;100.00;101332.78;4858478;29;20100;-74
2023/05/05 03:26:06;;;;;;;25.88;15.05;;;;;;;12.36;100.00;101340.13;4858600;29;20064;-74
2023/05/05 03:28:31;;;;;;;28.30;16.58;;;;;;;12.41;100.00;101337.94;4849200;29;20044;-74
2023/05/05 03:30:56;;;;;;;27.48;16.02;;;;;;;12.44;100.00;101337.72;4858014;29;20026;-74
2023/05/05 03:33:22;;;;;;;32.50;16.60;;;;;;;12.40;100.00;101337.09;4856546;29;20030;-74
2023/05/05 03:35:47;;;;;;;27.92;16.73;;;;;;;12.40;100.00;101341.59;4856744;29;20072;-74
2023/05/05 03:38:12;;;;;;;26.58;16.00;;;;;;;12.37;100.00;101337.31;4858015;29;20104;-74
2023/05/05 03:40:37;;;;;;;26.98;16.05;;;;;;;12.36;100.00;101340.97;4860360;29;20030;-74
2023/05/05 03:43:03;;;;;;;26.52;15.77;;;;;;;12.32;100.00;101335.94;4858618;29;20028;-74
2023/05/05 03:45:28;;;;;;;28.00;16.83;;;;;;;12.32;100.00;101346.72;4856312;29;20093;-74
2023/05/05 03:47:53;;;;;;;25.73;14.80;;;;;;;12.29;100.00;101342.41;4866926;29;20038;-74
2023/05/05 03:50:19;;;;;;;28.30;16.52;;;;;;;12.33;100.00;101343.03;4856870;29;20045;-73
2023/05/05 03:52:44;;;;;;;25.60;15.48;;;;;;;12.31;100.00;101342.28;4859013;29;20112;-74
2023/05/05 03:55:09;;;;;;;27.33;16.48;;;;;;;12.32;100.00;101344.03;4856871;29;20040;-74
2023/05/05 03:57:35;;;;;;;27.02;16.33;;;;;;;12.33;100.00;101353.81;4857687;29;20040;-74
2023/05/05 04:00:00;;;;;;;24.98;14.77;;;;;;;12.29;100.00;101353.19;4858547;29;20375;-74
2023/05/05 04:02:26;;;;;;;27.27;16.60;;;;;;;12.32;100.00;101354.81;4851149;29;20045;-74
2023/05/05 04:04:51;;;;;;;29.58;16.25;;;;;;;12.28;100.00;101359.53;4850267;29;20394;-74
2023/05/05 04:07:16;;;;;;;26.08;15.75;;;;;;;12.30;100.00;101362.13;4857596;29;20037;-74
2023/05/05 04:09:43;;;;;;;27.45;14.77;;;;;;;12.28;100.00;101358.69;4858166;29;20036;-74
2023/05/05 04:12:12;;;;;;;27.40;15.80;;;;;;;12.24;100.00;101353.53;4858133;29;20113;-74
2023/05/05 04:14:38;;;;;;;26.00;15.87;;;;;;;12.20;99.93;101357.41;4856422;29;20038;-74
2023/05/05 04:17:03;;;;;;;26.13;15.23;;;;;;;12.15;100.00;101362.28;4857109;29;20817;-74
2023/05/05 04:19:32;;;;;;;25.80;15.48;;;;;;;12.13;100.00;101374.97;4857533;29;20447;-74
2023/05/05 04:21:57;;;;;;;25.67;15.18;;;;;;;12.08;100.00;101361.00;4857394;29;20060;-73
2023/05/05 04:24:23;;;;;;;26.02;14.60;;;;;;;12.05;100.00;101364.75;4857895;29;20056;-74
2023/05/05 04:26:49;;;;;;;25.35;14.57;;;;;;;12.00;100.00;101360.66;4856819;29;20029;-74
2023/05/05 04:29:15;;;;;;;28.25;15.40;;;;;;;12.02;100.00;101364.97;4854306;29;20041;-73
2023/05/05 04:31:40;;;;;;;26.92;15.10;;;;;;;12.01;100.00;101375.88;4857867;29;20108;-74
2023/05/05 04:34:05;;;;;;;25.27;13.82;;;;;;;12.02;100.00;101373.06;4858838;29;20486;-74
2023/05/05 04:36:31;;;;;;;25.98;14.27;;;;;;;12.01;100.00;101367.78;4858393;29;20029;-74
2023/05/05 04:38:56;;;;;;;25.98;14.38;;;;;;;11.99;100.00;101369.72;4858607;29;20093;-74
2023/05/05 04:41:21;;;;;;;25.38;13.73;;;;;;;12.00;100.00;101366.06;4856072;29;20048;-74
2023/05/05 04:43:46;;;;;;;23.13;13.20;;;;;;;11.97;100.00;101366.28;4854724;29;20025;-74
2023/05/05 04:46:12;;;;;;;25.85;14.00;;;;;;;11.96;100.00;101372.63;4850690;29;20667;-74
2023/05/05 04:48:37;;;;;;;26.02;14.00;;;;;;;11.95;100.00;101370.91;4856783;29;20416;-74
2023/05/05 04:51:04;;;;;;;25.42;13.98;;;;;;;11.95;100.00;101370.91;4857715;29;20037;-74
2023/05/05 04:53:29;;;;;;;24.10;13.00;;;;;;;11.96;100.00;101365.44;4857527;29;20030;-74
2023/05/05 04:55:55;;;;;;;25.27;14.65;;;;;;;11.99;100.00;101364.31;4856824;29;20030;-74
2023/05/05 04:58:20;;;;;;;26.33;14.05;;;;;;;12.00;100.00;101366.06;4856829;29;20044;-74
2023/05/05 05:00:45;;;;;;;26.15;14.05;;;;;;;11.98;100.00;101365.31;4851387;29;20117;-74
2023/05/05 05:03:11;;;;;;;25.40;13.90;;;;;;;11.98;100.00;101362.63;4856548;29;20112;-74
2023/05/05 05:05:36;;;;;;;27.88;13.25;;;;;;;11.99;100.00;101361.63;4856886;29;20525;-74
2023/05/05 05:08:01;;;;;;;25.80;13.88;;;;;;;11.96;100.00;101348.38;4856130;29;20044;-74
2023/05/05 05:10:27;;;;;;;26.50;14.43;;;;;;;11.96;100.00;101356.47;4858343;29;20081;-75
2023/05/05 05:12:52;;;;;;;25.17;13.85;;;;;;;11.94;100.00;101351.19;4859838;29;20108;-73
2023/05/05 05:15:18;;;;;;;27.17;15.55;;;;;;;11.95;100.00;101349.34;4858820;29;20045;-75
2023/05/05 05:17:43;;;;;;;27.42;14.70;;;;;;;11.95;100.00;101347.53;4859153;29;20116;-74
2023/05/05 05:20:09;;;;;;;29.05;14.68;;;;;;;11.94;100.00;101350.34;4860417;29;20093;-74
2023/05/05 05:22:37;;;;;;;29.23;15.45;;;;;;;11.95;100.00;101349.34;4854245;29;20036;-74
2023/05/05 05:25:02;;;;;;;25.15;13.63;;;;;;;11.95;100.00;101352.03;4862007;29;20469;-74
2023/05/05 05:27:27;;;;;;;25.77;14.57;;;;;;;11.96;100.00;101354.66;4857919;29;20038;-74
2023/05/05 05:29:53;;;;;;;25.77;14.95;;;;;;;11.98;100.00;101357.22;4860075;29;20382;-74
2023/05/05 05:32:18;;;;;;;25.73;15.10;;;;;;;11.98;100.00;101357.22;4853009;29;20029;-74
2023/05/05 05:34:43;;;;;;;27.63;15.68;;;;;;;12.03;100.00;101358.59;4861490;29;20030;-74
2023/05/05 05:37:09;;;;;;;26.83;15.05;;;;;;;12.07;100.00;101362.81;4860613;29;20033;-73
2023/05/05 05:39:34;;;;;;;25.13;14.95;;;;;;;12.13;100.00;101366.91;4857966;29;20026;-74
2023/05/05 05:41:59;;;;;;;27.98;15.90;;;;;;;12.21;100.00;101380.69;4854142;29;20025;-74
2023/05/05 05:44:24;;;;;;;26.20;16.00;;;;;;;12.27;100.00;101389.28;4853993;29;20057;-74
2023/05/05 05:46:50;;;;;;;27.20;15.93;;;;;;;12.33;100.00;101405.91;4859677;29;20055;-74
2023/05/05 05:49:15;;;;;;;25.30;14.52;;;;;;;12.42;100.00;101409.78;4859664;29;20057;-74
2023/05/05 05:51:40;;;;;;;30.25;16.38;;;;;;;12.50;100.00;101410.06;4859247;29;20025;-73
2023/05/05 05:54:06;;;;;;;26.83;15.07;;;;;;;12.58;100.00;101418.47;4857390;29;20042;-74
2023/05/05 05:56:31;;;;;;;26.67;15.18;;;;;;;12.66;100.00;101422.44;4859968;29;20033;-74
2023/05/05 05:58:56;;;;;;;26.50;16.05;;;;;;;12.74;100.00;101423.59;4859289;29;20542;-74
2023/05/05 06:01:22;;;;;;;26.92;14.43;;;;;;;12.85;100.00;101432.75;4858383;29;20662;-74
2023/05/05 06:03:47;;;;;;;27.45;15.65;;;;;;;12.92;100.00;101439.41;4857722;29;20052;-75
2023/05/05 06:06:12;;;;;;;24.63;14.48;;;;;;;13.02;100.00;101445.84;4858958;29;20120;-74
2023/05/05 06:08:38;;;;;;;28.50;15.07;;;;;;;13.12;100.00;101448.72;4859858;29;20029;-74
2023/05/05 06:11:03;;;;;;;24.75;13.88;;;;;;;13.22;100.00;101451.56;4860514;29;20032;-74
2023/05/05 06:13:28;;;;;;;26.42;14.20;;;;;;;13.31;100.00;101445.50;4860363;29;20116;-74
2023/05/05 06:15:53;;;;;;;27.90;15.20;;;;;;;13.40;100.00;101443.97;4857648;29;20030;-73
2023/05/05 06:18:19;;;;;;;29.70;16.40;;;;;;;13.51;100.00;101445.84;4859210;29;20029;-73
2023/05/05 06:20:48;;;;;;;28.13;15.82;;;;;;;13.61;100.00;101458.53;4857976;29;20034;-76
2023/05/05 06:23:13;;;;;;;31.77;16.20;;;;;;;13.72;99.68;101452.31;4871396;29;20146;-74
2023/05/05 06:25:38;;;;;;;28.20;17.38;;;;;;;13.84;99.66;101460.47;4855548;29;20069;-74
2023/05/05 06:28:04;;;;;;;29.38;17.60;;;;;;;13.93;99.10;101451.63;4857584;29;20037;-74
2023/05/05 06:30:29;;;;;;;28.95;17.42;;;;;;;14.01;98.92;101448.31;4861132;29;20112;-74
2023/05/05 06:32:55;;;;;;;28.38;15.80;;;;;;;14.08;99.26;101450.41;4862783;29;20480;-74
2023/05/05 06:35:21;;;;;;;26.58;14.70;;;;;;;14.16;97.75;101442.56;4862034;29;20026;-74
2023/05/05 06:37:46;;;;;;;29.45;16.85;;;;;;;14.21;97.76;101438.66;4859165;29;20136;-74
2023/05/05 06:40:11;;;;;;;30.40;16.45;;;;;;;14.27;97.83;101441.72;4857671;29;20116;-74
2023/05/05 06:42:37;;;;;;;27.35;16.20;;;;;;;14.32;97.51;101447.63;4855206;29;20033;-74
2023/05/05 06:45:02;;;;;;;28.20;15.98;;;;;;;14.36;97.28;101441.97;4859468;29;20013;-74
2023/05/05 06:47:27;;;;;;;28.33;17.23;;;;;;;14.38;96.41;101445.41;4855853;29;20041;-74
2023/05/05 06:49:52;;;;;;;28.23;15.52;;;;;;;14.43;97.13;101448.59;4858139;29;20090;-74
2023/05/05 06:52:18;;;;;;;28.95;16.85;;;;;;;14.51;97.96;101446.16;4857422;29;20112;-74
2023/05/05 06:54:43;;;;;;;26.25;15.15;;;;;;;14.57;97.19;101450.19;4858030;29;20034;-74
2023/05/05 06:57:08;;;;;;;26.73;15.70;;;;;;;14.61;96.17;101449.88;4855900;29;20037;-74
2023/05/05 06:59:34;;;;;;;28.23;14.93;;;;;;;14.68;96.64;101448.41;4858589;29;20034;-74
2023/05/05 07:01:59;;;;;;;26.63;14.02;;;;;;;14.76;95.88;101453.19;4856617;29;20041;-74
2023/05/05 07:04:25;;;;;;;25.27;12.82;;;;;;;14.79;95.26;101458.34;4855163;29;20034;-74
2023/05/05 07:06:50;;;;;;;25.13;12.40;;;;;;;14.83;93.92;101458.94;4856325;29;20565;-74
2023/05/05 07:09:16;;;;;;;25.83;12.18;;;;;;;14.86;93.65;101461.38;4858213;29;20135;-74
2023/05/05 07:11:41;;;;;;;24.23;11.48;;;;;;;14.98;93.28;101465.81;4858586;29;20033;-75
2023/05/05 07:14:06;;;;;;;22.52;11.30;;;;;;;15.04;92.95;101467.16;4857852;29;20111;-74
2023/05/05 07:16:33;;;;;;;22.83;11.65;;;;;;;15.19;92.33;101462.31;4858642;29;20033;-75
2023/05/05 07:18:59;;;;;;;21.50;11.18;;;;;;;15.29;90.85;101470.53;4863380;29;20037;-74
2023/05/05 07:21:25;;;;;;;24.58;12.05;;;;;;;15.33;89.95;101470.16;4854971;29;20072;-74
2023/05/05 07:23:50;;;;;;;22.63;9.93;;;;;;;15.40;87.64;101470.47;4861111;29;20022;-74
2023/05/05 07:26:15;;;;;;;26.15;10.80;;;;;;;15.42;88.48;101475.75;4860286;29;20130;-74
2023/05/05 07:28:41;;;;;;;25.38;11.80;;;;;;;15.48;89.43;101477.97;4858525;29;20065;-75
2023/05/05 07:31:07;;;;;;;26.50;11.65;;;;;;;15.52;89.73;101477.59;4857407;29;20132;-75
2023/05/05 07:33:32;;;;;;;24.25;10.40;;;;;;;15.53;87.77;101470.31;4858647;29;20461;-75
2023/05/05 07:35:57;;;;;;;22.30;10.77;;;;;;;15.59;88.59;101472.50;4859228;29;20052;-75
2023/05/05 07:38:24;;;;;;;23.90;10.23;;;;;;;15.65;88.39;101468.41;4861223;29;20045;-75
2023/05/05 07:40:49;;;;;;;23.17;10.15;;;;;;;15.70;88.31;101464.31;4859168;29;20030;-75
2023/05/05 07:43:15;;;;;;;25.67;11.07;;;;;;;15.79;88.09;101461.84;4858161;29;20025;-75
2023/05/05 07:45:40;;;;;;;26.05;10.30;;;;;;;15.83;87.87;101455.19;4857979;29;20064;-75
2023/05/05 07:48:05;;;;;;;20.65;10.10;;;;;;;15.86;86.57;101450.34;4857562;29;20044;-74
2023/05/05 07:50:31;;;;;;;21.77;10.15;;;;;;;15.91;87.11;101452.66;4843439;29;20065;-74
2023/05/05 07:52:56;;;;;;;22.85;11.50;;;;;;;15.93;85.44;101452.50;4858324;29;20109;-77
2023/05/05 07:55:22;;;;;;;22.65;10.05;;;;;;;15.97;86.05;101445.84;4855812;29;20029;-75
2023/05/05 07:57:50;;;;;;;22.05;9.45;;;;;;;16.02;86.09;101452.59;4856342;29;20120;-75
2023/05/05 08:00:18;;;;;;;22.98;9.73;;;;;;;16.15;87.17;101455.09;4855353;29;20044;-75
2023/05/05 08:02:43;;;;;;;21.52;9.65;;;;;;;16.19;85.22;101447.53;4857431;29;20077;-75
2023/05/05 08:05:08;;;;;;;21.70;10.05;;;;;;;16.26;83.87;101451.44;4859241;29;20611;-75
2023/05/05 08:07:35;;;;;;;19.77;8.27;;;;;;;16.39;85.38;101448.50;4857086;29;20375;-75
2023/05/05 08:10:00;;;;;;;20.30;7.90;;;;;;;16.36;83.23;101449.63;4860106;29;20116;-75
2023/05/05 08:12:26;;;;;;;20.67;8.60;;;;;;;16.46;83.63;101457.81;4858123;29;20136;-75
2023/05/05 08:14:51;;;;;;;22.15;8.07;;;;;;;16.48;81.42;101453.09;4853195;29;20029;-75
2023/05/05 08:17:16;;;;;;;19.95;8.10;;;;;;;16.54;82.20;101466.09;4853677;29;20236;-75
2023/05/05 08:19:41;;;;;;;18.95;7.90;;;;;;;16.61;82.90;101466.44;4854561;29;20096;-75
2023/05/05 08:22:07;;;;;;;16.85;6.53;;;;;;;16.65;80.44;101467.00;4855813;29;20481;-77
2023/05/05 08:24:32;;;;;;;18.33;6.25;;;;;;;16.67;81.38;101460.44;4854218;29;20100;-75
2023/05/05 08:26:57;;;;;;;19.83;6.07;;;;;;;16.77;81.31;101455.91;4856595;29;20033;-75
2023/05/05 08:29:22;;;;;;;19.10;6.45;;;;;;;16.89;79.68;101464.84;4859539;29;20056;-75
2023/05/05 08:31:48;;;;;;;13.82;4.40;;;;;;;16.97;77.54;101466.88;4855711;29;20485;-75
2023/05/05 08:34:13;;;;;;;13.50;4.63;;;;;;;17.05;76.51;101469.72;4858262;29;20038;-75
2023/05/05 08:36:38;;;;;;;17.70;4.95;;;;;;;17.12;76.15;101470.91;4854878;29;20473;-75
2023/05/05 08:39:03;;;;;;;13.77;4.93;;;;;;;17.16;77.17;101468.78;4854319;29;20064;-75
2023/05/05 08:41:29;;;;;;;14.35;5.03;;;;;;;17.21;77.73;101468.34;4854755;29;20381;-74
2023/05/05 08:43:54;;;;;;;14.68;4.60;;;;;;;17.19;78.89;101470.31;4855151;29;20112;-75
2023/05/05 08:46:21;;;;;;;18.02;5.60;;;;;;;17.15;77.64;101468.91;4857979;29;20056;-79
2023/05/05 08:48:47;;;;;;;17.60;5.80;;;;;;;17.11;76.01;101466.44;4858257;29;20112;-75
2023/05/05 08:51:16;;;;;;;17.35;5.18;;;;;;;17.09;77.83;101471.19;4855187;29;20499;-73
2023/05/05 08:53:54;;;;;;;;;;;;;;;17.12;78.03;101470.91;4852483;29;20037;-74
2023/05/05 08:56:23;;;;;;;16.13;4.95;;;;;;;17.10;77.04;101467.47;4857126;29;19932;-76
2023/05/05 08:58:50;;;;;;;14.13;4.75;;;;;;;17.13;77.03;101466.34;4855260;29;20040;-77
2023/05/05 09:01:15;;;;;;;10.82;3.70;;;;;;;17.14;78.81;101461.75;4859499;29;20489;-74
2023/05/05 09:03:42;;;;;;;16.95;5.53;;;;;;;17.21;77.36;101468.34;4855437;29;20040;-75
2023/05/05 09:06:09;;;;;;;14.40;4.82;;;;;;;17.20;76.52;101458.47;4856959;29;20057;-74
2023/05/05 09:08:35;;;;;;;13.82;5.22;;;;;;;17.24;75.98;101462.63;4858080;29;20121;-75
2023/05/05 09:11:01;;;;;;;15.80;4.93;;;;;;;17.29;77.82;101465.75;4860021;29;20393;-74
2023/05/05 09:13:29;;;;;;;17.05;4.90;;;;;;;17.31;75.36;101471.94;4856741;29;20044;-75
2023/05/05 09:15:54;;;;;;;16.23;4.80;;;;;;;17.34;75.12;101473.50;4860123;29;20041;-75
2023/05/05 09:18:19;;;;;;;14.63;5.15;;;;;;;17.33;76.12;101478.06;4860280;29;20409;-74
2023/05/05 09:20:45;;;;;;;17.33;5.25;;;;;;;17.34;75.46;101478.94;4857231;29;20547;-75
2023/05/05 09:23:12;;;;;;;16.45;5.22;;;;;;;17.31;75.92;101474.66;4857452;29;20040;-78
2023/05/05 09:25:39;;;;;;;21.50;5.55;;;;;;;17.36;78.26;101477.78;4853926;29;20102;-79
2023/05/05 09:28:12;;;;;;;16.52;5.00;;;;;;;17.41;79.29;101480.94;4855473;29;20040;-76
2023/05/05 09:30:39;;;;;;;25.40;5.35;;;;;;;17.41;81.13;101471.91;4855316;29;20037;-77
2023/05/05 09:33:05;;;;;;;23.30;6.38;;;;;;;17.42;81.21;101481.78;4855691;29;20037;-76
2023/05/05 09:35:53;;;;;;;16.20;5.43;;;;;;;17.46;81.47;101483.22;4849399;29;20102;-76
2023/05/05 09:38:20;;;;;;;19.73;5.80;;;;;;;17.40;78.56;101483.81;4857250;29;20025;-77
2023/05/05 09:40:48;;;;;;;17.85;5.25;;;;;;;17.37;77.92;101473.22;4857921;29;20041;-76
2023/05/05 09:43:15;;;;;;;18.50;5.90;;;;;;;17.36;82.17;101477.78;4856707;29;20049;-76
2023/05/05 09:45:40;;;;;;;14.23;5.07;;;;;;;17.36;78.47;101476.94;4856418;29;20029;-76
2023/05/05 09:48:06;;;;;;;15.93;5.28;;;;;;;17.33;84.78;101472.63;4854802;29;20034;-77
2023/05/05 09:50:43;;;;;;;14.25;4.97;;;;;;;17.32;79.40;101478.22;4857405;29;20102;-75
2023/05/05 09:53:09;;;;;;;17.90;5.05;;;;;;;17.26;80.91;101487.78;4849326;29;20474;-74
2023/05/05 09:55:35;;;;;;;16.73;5.15;;;;;;;17.20;80.45;101472.91;4852872;29;20043;-75
2023/05/05 09:58:19;;;;;;;16.85;5.53;;;;;;;17.19;83.11;101478.47;4860398;29;20036;-74
2023/05/05 10:00:45;;;;;;;15.40;5.00;;;;;;;17.12;87.51;101473.59;4857790;29;20061;-75
2023/05/05 10:03:11;;;;;;;16.77;5.35;;;;;;;17.08;85.02;101480.31;4858434;29;20503;-75
2023/05/05 10:05:49;;;;;;;15.27;5.18;;;;;;;17.02;87.09;101478.16;4854027;29;20037;-75
2023/05/05 10:08:15;;;;;;;14.65;5.30;;;;;;;16.91;87.08;101473.72;4855319;29;20033;-75
2023/05/05 10:10:46;;;;;;;17.85;5.72;;;;;;;16.82;90.35;101471.78;4858123;29;20043;-75
2023/05/05 10:13:11;;;;;;;17.27;5.50;;;;;;;16.73;88.24;101476.19;4855350;29;20045;-75
2023/05/05 10:15:37;;;;;;;21.80;6.80;;;;;;;16.68;94.11;101473.03;4860801;29;20029;-75
2023/05/05 10:18:04;;;;;;;18.27;6.65;;;;;;;16.61;93.69;101477.28;4861679;29;20056;-75
2023/05/05 10:20:31;;;;;;;19.33;6.55;;;;;;;16.55;93.70;101467.00;4857362;29;20037;-74
2023/05/05 10:23:01;;;;;;;18.40;6.85;;;;;;;16.47;92.19;101464.09;4855272;29;20051;-76
2023/05/05 10:25:33;;;;;;;;;;;;;;;16.54;90.82;101468.81;4859743;29;20065;-74
2023/05/05 10:28:00;;;;;;;16.90;6.57;;;;;;;16.45;97.93;101468.81;4857853;29;19939;-74
2023/05/05 10:30:29;;;;;;;20.88;7.38;;;;;;;16.38;97.60;101474.78;4861943;29;20039;-74
2023/05/05 10:33:02;;;;;;;19.80;7.43;;;;;;;16.36;98.16;101479.47;4860975;29;20036;-74
2023/05/05 10:35:30;;;;;;;21.08;8.57;;;;;;;16.31;100.00;101487.16;4857553;29;20038;-75
2023/05/05 10:37:57;;;;;;;22.83;8.30;;;;;;;16.29;100.00;101485.56;4857481;29;20043;-75
2023/05/05 10:40:22;;;;;;;22.85;8.55;;;;;;;16.21;100.00;101497.94;4858742;29;20090;-74
2023/05/05 10:42:49;;;;;;;23.20;8.68;;;;;;;16.13;99.10;101494.19;4859132;29;20049;-75
2023/05/05 10:45:15;;;;;;;18.70;7.28;;;;;;;16.04;98.76;101493.97;4857849;29;20375;-75
2023/05/05 10:47:43;;;;;;;21.88;7.40;;;;;;;16.00;99.15;101500.66;4858247;29;20032;-75
2023/05/05 10:50:20;;;;;;;21.42;7.20;;;;;;;15.97;100.00;101492.78;4857964;29;20409;-74
2023/05/05 10:53:02;;;;;;;17.90;6.25;;;;;;;15.94;100.00;101495.75;4859267;29;20029;-74
2023/05/05 10:55:43;;;;;;;19.90;6.00;;;;;;;15.92;100.00;101494.19;4857867;29;20033;-75
2023/05/05 10:58:34;;;;;;;21.20;6.90;;;;;;;15.90;100.00;101486.16;4860944;29;20169;-75
2023/05/05 11:01:01;;;;;;;19.00;6.80;;;;;;;15.84;100.00;101490.28;4845528;29;20025;-75
2023/05/05 11:03:26;;;;;;;21.45;7.50;;;;;;;15.80;100.00;101505.09;4857833;29;20109;-76
2023/05/05 11:06:07;;;;;;;18.67;7.05;;;;;;;15.79;100.00;101507.94;4859555;29;20025;-75
2023/05/05 11:08:42;;;;;;;20.38;7.80;;;;;;;15.73;100.00;101510.13;4858403;29;20034;-76
2023/05/05 11:11:09;;;;;;;20.70;8.05;;;;;;;15.68;100.00;101517.78;4855279;29;20037;-76